Time;durP1;ratioP1;P1;durP2;ratioP2;P2;SDS_P1;SDS_P2;PMS_P1;PMS_P2;Temp;Humidity;BMP_temperature;BMP_pressure;BME280_temperature;BME280_humidity;BME280_pressure;Samples;Min_cycle;Max_cycle;Signal;HPM_P1;HPM_P2
2022/06/14 00:03:10;;;;;;;;;;;;;;;13.49;93.84;99224.94;5131249;27;20054;-76
2022/06/14 00:06:17;;;;;;;1.83;1.00;;;;;;;13.53;93.48;99228.22;5136023;27;19948;-77
2022/06/14 00:09:03;;;;;;;2.33;1.00;;;;;;;13.51;93.01;99227.50;5100227;28;20047;-77
2022/06/14 00:11:48;;;;;;;2.03;1.02;;;;;;;13.54;94.12;99224.63;5117650;27;20645;-77
2022/06/14 00:14:33;;;;;;;3.70;1.23;;;;;;;13.55;92.41;99224.50;5109551;28;20038;-76
2022/06/14 00:17:17;;;;;;;2.60;1.08;;;;;;;13.59;91.87;99219.88;5121723;27;20466;-75
2022/06/14 00:20:04;;;;;;;5.40;1.55;;;;;;;13.60;91.69;99218.91;5119021;27;20355;-76
2022/06/14 00:22:50;;;;;;;2.47;0.93;;;;;;;13.61;91.94;99219.75;5120187;27;20050;-76
2022/06/14 00:25:41;;;;;;;3.22;1.50;;;;;;;13.68;91.56;99228.84;5118643;27;20083;-76
2022/06/14 00:28:28;;;;;;;2.70;1.13;;;;;;;13.75;90.81;99232.72;5119407;27;20063;-76
2022/06/14 00:31:17;;;;;;;3.55;0.98;;;;;;;13.72;91.43;99226.84;5107607;27;20031;-76
2022/06/14 00:34:01;;;;;;;2.28;1.17;;;;;;;13.76;90.90;99223.00;5118683;27;20065;-76
2022/06/14 00:36:53;;;;;;;3.83;1.10;;;;;;;13.74;91.51;99219.69;5120059;27;20397;-75
2022/06/14 00:39:37;;;;;;;1.67;1.02;;;;;;;13.72;91.31;99226.84;5119872;27;20031;-76
2022/06/14 00:42:22;;;;;;;3.80;0.88;;;;;;;13.66;91.66;99223.72;5104456;27;20384;-76
2022/06/14 00:45:13;;;;;;;2.80;1.27;;;;;;;13.74;93.00;99222.31;5135760;27;20126;-76
2022/06/14 00:48:07;;;;;;;2.87;0.90;;;;;;;13.71;91.99;99227.81;5092411;27;20068;-75
2022/06/14 00:51:07;;;;;;;3.17;1.13;;;;;;;13.65;92.08;99227.31;5104204;27;20039;-75
2022/06/14 00:54:30;;;;;;;5.55;1.40;;;;;;;13.60;92.04;99225.94;5105342;27;20042;-75
2022/06/14 00:57:20;;;;;;;3.20;1.17;;;;;;;13.56;91.79;99225.34;5119207;27;20050;-75
2022/06/14 01:00:14;;;;;;;1.80;0.95;;;;;;;13.46;93.11;99224.31;5102036;28;20048;-75
2022/06/14 01:03:05;;;;;;;1.92;0.95;;;;;;;13.47;93.46;99223.34;5131140;27;20043;-76
2022/06/14 01:06:05;;;;;;;6.60;1.23;;;;;;;13.51;93.67;99214.31;5112178;27;20031;-76
2022/06/14 01:09:13;;;;;;;2.45;1.08;;;;;;;13.59;93.43;99211.13;5088139;27;20062;-76
2022/06/14 01:12:13;;;;;;;2.28;1.25;;;;;;;13.47;93.95;99208.41;5118826;27;20382;-74
2022/06/14 01:15:05;;;;;;;3.47;1.23;;;;;;;13.38;95.28;99212.53;5103929;27;20035;-75
2022/06/14 01:17:58;;;;;;;1.90;1.10;;;;;;;13.35;96.06;99212.78;5133951;27;20047;-76
2022/06/14 01:20:44;;;;;;;3.55;1.00;;;;;;;13.24;97.19;99215.34;5106379;27;20102;-76
2022/06/14 01:23:29;;;;;;;2.42;1.00;;;;;;;13.29;96.58;99207.97;5118594;27;20068;-76
2022/06/14 01:26:18;;;;;;;2.60;1.00;;;;;;;13.27;96.82;99213.34;5132257;27;20045;-76
2022/06/14 01:29:05;;;;;;;3.47;1.00;;;;;;;13.33;96.41;99204.16;5131910;27;20074;-77
2022/06/14 01:31:55;;;;;;;2.72;1.20;;;;;;;13.28;95.84;99201.03;5133476;27;20115;-77
2022/06/14 01:34:47;;;;;;;3.45;1.35;;;;;;;13.32;95.42;99199.03;5122773;27;20039;-74
2022/06/14 01:37:32;;;;;;;3.15;1.05;;;;;;;13.36;95.75;99205.72;5111788;27;20039;-76
2022/06/14 01:40:25;;;;;;;2.30;1.15;;;;;;;13.30;96.23;99202.59;5115858;27;20035;-75
2022/06/14 01:43:25;;;;;;;3.72;1.23;;;;;;;13.24;96.35;99208.31;5110758;27;20035;-74
2022/06/14 01:46:29;;;;;;;4.30;1.30;;;;;;;13.15;97.46;99207.16;5114895;27;20084;-76
2022/06/14 01:53:16;;;;;;;2.15;1.38;;;;;;;13.19;97.09;99213.06;5113928;27;20466;-76
2022/06/14 01:56:22;;;;;;;2.50;1.05;;;;;;;13.15;97.14;99215.06;5130275;27;20091;-76
2022/06/14 01:59:34;;;;;;;2.28;1.13;;;;;;;13.16;97.35;99213.28;5118680;27;20131;-75
2022/06/14 02:02:28;;;;;;;2.85;1.15;;;;;;;13.17;97.18;99218.44;5117234;27;20057;-76
2022/06/14 02:05:32;;;;;;;2.75;1.20;;;;;;;13.28;96.47;99214.19;5132487;27;20042;-76
2022/06/14 02:08:21;;;;;;;3.42;1.50;;;;;;;13.26;95.68;99218.72;5120190;27;20422;-76
2022/06/14 02:11:12;;;;;;;5.50;1.50;;;;;;;13.22;95.62;99219.91;5122691;27;20424;-75
2022/06/14 02:14:09;;;;;;;2.72;1.40;;;;;;;13.26;94.79;99223.97;5155197;27;20053;-76
2022/06/14 02:17:11;;;;;;;3.45;1.40;;;;;;;13.24;95.30;99217.97;5133316;27;20043;-76
2022/06/14 02:20:04;;;;;;;2.17;1.10;;;;;;;13.41;95.14;99219.41;5131646;27;20058;-76
2022/06/14 02:22:58;;;;;;;1.83;1.10;;;;;;;13.37;94.83;99226.66;5117495;27;20110;-77
2022/06/14 02:25:54;;;;;;;2.80;1.40;;;;;;;13.32;94.51;99227.97;5128586;27;20031;-75
2022/06/14 02:28:53;;;;;;;3.97;1.35;;;;;;;13.23;94.45;99221.56;5126431;27;20070;-76
2022/06/14 02:32:01;;;;;;;4.78;1.35;;;;;;;13.20;94.92;99224.44;5132274;27;20028;-76
2022/06/14 02:35:21;;;;;;;2.17;1.25;;;;;;;13.17;95.34;99220.25;5116975;27;20359;-76
2022/06/14 02:38:22;;;;;;;2.38;1.30;;;;;;;13.10;95.83;99229.50;5111066;27;20059;-76
2022/06/14 02:41:21;;;;;;;2.40;1.23;;;;;;;12.98;96.90;99231.22;5119149;27;20039;-76
2022/06/14 02:44:18;;;;;;;1.98;1.25;;;;;;;12.99;97.06;99231.09;5094957;27;20035;-77
2022/06/14 02:47:20;;;;;;;4.88;1.48;;;;;;;12.98;96.68;99225.97;5116774;27;20031;-76
2022/06/14 02:50:11;;;;;;;5.68;1.40;;;;;;;12.96;97.04;99235.78;5106048;27;20035;-76
2022/06/14 02:53:18;;;;;;;5.18;1.58;;;;;;;12.94;97.09;99234.06;5111734;28;20054;-76
2022/06/14 02:56:36;;;;;;;3.13;1.63;;;;;;;12.92;97.08;99235.13;5130822;28;20103;-76
2022/06/14 02:59:51;;;;;;;3.75;1.40;;;;;;;12.96;97.10;99223.44;5132803;28;20510;-76
2022/06/14 03:03:08;;;;;;;3.80;1.73;;;;;;;12.99;96.49;99231.09;5114393;28;20053;-75
2022/06/14 03:06:27;;;;;;;3.33;1.70;;;;;;;13.03;96.89;99239.63;5122021;28;20069;-76
2022/06/14 03:09:34;;;;;;;4.95;1.55;;;;;;;13.16;95.90;99236.94;5131509;28;20114;-75
2022/06/14 03:12:51;;;;;;;2.05;1.23;;;;;;;13.18;95.00;99241.16;5118104;28;20579;-76
2022/06/14 03:16:07;;;;;;;2.92;1.20;;;;;;;13.36;93.34;99240.78;5117327;28;20445;-76
2022/06/14 03:19:19;;;;;;;7.45;1.65;;;;;;;13.29;93.11;99250.06;5131207;28;20062;-76
2022/06/14 03:22:17;;;;;;;2.83;1.50;;;;;;;13.38;91.83;99256.47;5129025;28;20100;-76
2022/06/14 03:25:10;;;;;;;1.95;1.20;;;;;;;13.51;92.06;99267.78;5131313;27;20044;-76
2022/06/14 03:28:01;;;;;;;2.78;1.48;;;;;;;13.66;91.55;99273.72;5118997;27;20060;-77
2022/06/14 03:31:01;;;;;;;2.45;1.17;;;;;;;13.86;89.82;99292.47;5119946;27;20474;-76
2022/06/14 03:34:00;;;;;;;4.13;1.27;;;;;;;13.95;91.48;99300.66;5135145;27;20480;-75
2022/06/14 03:36:45;;;;;;;2.75;1.00;;;;;;;14.04;90.01;99300.81;5135195;27;20043;-76
2022/06/14 03:39:35;;;;;;;1.95;1.05;;;;;;;14.04;91.04;99311.34;5117901;27;20527;-72
2022/06/14 03:42:21;;;;;;;2.20;0.85;;;;;;;14.10;90.35;99312.66;5133341;27;20075;-76
2022/06/14 03:45:15;;;;;;;2.75;1.40;;;;;;;14.02;91.44;99322.94;5132685;27;20378;-73
2022/06/14 03:48:03;;;;;;;2.13;0.90;;;;;;;14.28;93.04;99328.06;5135863;27;20431;-75
2022/06/14 03:51:09;;;;;;;3.17;1.10;;;;;;;14.43;92.35;99322.59;5117102;27;20035;-74
2022/06/14 03:54:23;;;;;;;2.65;1.10;;;;;;;14.68;94.00;99323.34;5121651;27;20039;-75
2022/06/14 03:57:34;;;;;;;2.67;1.10;;;;;;;14.47;92.23;99324.03;5121906;27;20043;-73
2022/06/14 04:00:19;;;;;;;3.65;1.42;;;;;;;14.46;91.68;99323.19;5120170;27;20039;-74
2022/06/14 04:03:19;;;;;;;3.63;1.23;;;;;;;14.50;92.53;99326.44;5135218;27;20039;-58
2022/06/14 04:06:13;;;;;;;3.92;0.82;;;;;;;14.66;90.85;99334.84;5115667;27;20050;-75
2022/06/14 04:09:13;;;;;;;4.35;1.30;;;;;;;14.49;91.40;99335.31;5134367;27;20047;-74
2022/06/14 04:12:16;;;;;;;1.98;1.13;;;;;;;14.28;92.45;99335.97;5120181;27;20046;-77
2022/06/14 04:15:02;;;;;;;2.00;1.15;;;;;;;14.16;92.65;99338.59;5142907;27;20079;-77
2022/06/14 04:18:35;;;;;;;3.10;1.30;;;;;;;13.87;94.80;99331.03;5108031;27;20040;-75
2022/06/14 04:21:31;;;;;;;;;;;;;;;13.83;92.88;99329.56;5103935;27;20067;-75
2022/06/14 04:24:29;;;;;;;1.60;0.95;;;;;;;14.07;92.60;99328.72;5105955;27;20565;-75
2022/06/14 04:27:18;;;;;;;2.65;1.50;;;;;;;13.76;92.88;99331.81;5109998;27;20039;-71
2022/06/14 04:30:09;;;;;;;2.97;1.35;;;;;;;13.67;92.92;99332.50;5134703;27;20515;-74
2022/06/14 04:33:02;;;;;;;8.50;1.35;;;;;;;13.61;92.96;99339.03;5113611;27;20054;-73
2022/06/14 04:35:47;;;;;;;3.80;1.30;;;;;;;13.90;96.15;99338.72;5134913;27;20095;-73
2022/06/14 04:38:45;;;;;;;5.00;1.00;;;;;;;14.07;91.72;99338.44;5130225;27;20039;-74
2022/06/14 04:41:44;;;;;;;3.78;1.20;;;;;;;14.40;90.10;99342.97;5136198;27;20058;-74
2022/06/14 04:44:32;;;;;;;3.10;1.33;;;;;;;14.65;86.71;99349.00;5134892;27;20096;-73
2022/06/14 04:47:46;;;;;;;2.90;1.25;;;;;;;15.01;84.03;99348.91;5134975;27;20043;-75
2022/06/14 04:50:59;;;;;;;3.95;1.40;;;;;;;14.98;84.99;99351.81;5135365;27;20031;-73
2022/06/14 04:53:50;;;;;;;2.92;1.35;;;;;;;15.11;79.98;99341.13;5118456;27;20058;-72
2022/06/14 04:56:44;;;;;;;8.13;1.45;;;;;;;15.11;81.29;99345.59;5118713;27;20038;-75
2022/06/14 04:59:41;;;;;;;3.35;1.13;;;;;;;15.14;80.72;99340.91;5134814;27;20039;-74
2022/06/14 05:02:37;;;;;;;2.45;0.90;;;;;;;15.11;78.76;99349.03;5121708;27;20454;-73
2022/06/14 05:05:39;;;;;;;4.43;1.30;;;;;;;15.30;79.02;99344.97;5119543;27;20391;-71
2022/06/14 05:08:26;;;;;;;3.85;1.40;;;;;;;15.55;75.60;99350.09;5128097;27;20043;-71
2022/06/14 05:11:21;;;;;;;3.55;1.20;;;;;;;15.73;77.27;99345.94;5134076;27;20059;-73
2022/06/14 05:14:35;;;;;;;2.20;1.30;;;;;;;15.68;72.98;99347.28;5134267;27;20378;-73
2022/06/14 05:17:33;;;;;;;2.65;1.20;;;;;;;15.60;72.95;99345.28;5129281;27;20073;-73
2022/06/14 05:20:31;;;;;;;4.57;1.60;;;;;;;15.71;72.41;99349.69;5113353;27;20050;-73
2022/06/14 05:23:30;;;;;;;3.35;1.27;;;;;;;16.07;70.51;99346.84;5082175;28;20172;-73
2022/06/14 05:26:36;;;;;;;3.22;1.35;;;;;;;16.17;72.07;99347.75;5115302;27;20027;-73
2022/06/14 05:29:29;;;;;;;3.42;1.58;;;;;;;16.13;68.95;99349.81;5128663;27;20031;-73
2022/06/14 05:32:32;;;;;;;3.13;1.20;;;;;;;15.98;71.81;99356.34;5117650;27;20088;-76
2022/06/14 05:35:44;;;;;;;3.78;1.40;;;;;;;16.04;70.00;99347.09;5101406;27;20390;-71
2022/06/14 05:39:01;;;;;;;5.00;1.50;;;;;;;16.31;68.09;99351.03;5123806;27;20031;-76
2022/06/14 05:42:09;;;;;;;3.30;1.23;;;;;;;15.86;68.28;99355.53;5122825;27;20110;-74
2022/06/14 05:44:59;;;;;;;2.00;1.20;;;;;;;15.93;67.09;99354.06;5113629;27;20049;-74
2022/06/14 05:48:05;;;;;;;4.47;1.35;;;;;;;16.19;67.24;99351.09;5133624;27;20042;-75
2022/06/14 05:50:54;;;;;;;5.47;1.40;;;;;;;16.50;66.80;99350.31;5130714;27;20042;-75
2022/06/14 05:54:00;;;;;;;4.60;1.27;;;;;;;16.42;66.07;99345.69;5132367;27;20039;-75
2022/06/14 05:56:54;;;;;;;3.03;1.20;;;;;;;16.44;65.75;99349.06;5133448;27;20031;-75
2022/06/14 06:00:04;;;;;;;4.97;1.80;;;;;;;16.48;65.89;99352.28;5133017;27;20586;-73
2022/06/14 06:03:15;;;;;;;3.28;1.30;;;;;;;16.29;66.15;99353.81;5118930;27;20485;-75
2022/06/14 06:06:10;;;;;;;4.93;1.77;;;;;;;16.47;65.73;99354.06;5121662;27;20118;-74
2022/06/14 06:09:01;;;;;;;4.57;1.20;;;;;;;16.52;67.01;99355.50;5133492;27;20144;-75
2022/06/14 06:11:53;;;;;;;2.53;1.33;;;;;;;16.82;65.52;99354.72;5116975;27;20036;-76
2022/06/14 06:14:49;;;;;;;2.63;1.45;;;;;;;17.11;64.19;99350.53;5127435;27;20047;-76
2022/06/14 06:17:58;;;;;;;3.95;1.30;;;;;;;17.24;62.70;99359.09;5116814;27;20466;-74
2022/06/14 06:21:04;;;;;;;3.78;1.70;;;;;;;17.16;65.11;99360.72;5113176;27;20316;-75
2022/06/14 06:24:14;;;;;;;3.97;1.15;;;;;;;17.68;63.34;99355.28;5105628;27;20069;-76
2022/06/14 06:27:08;;;;;;;3.45;1.40;;;;;;;17.72;62.06;99359.31;5089569;27;20046;-76
2022/06/14 06:30:04;;;;;;;2.70;1.10;;;;;;;17.87;63.29;99358.09;5131957;27;20039;-77
2022/06/14 06:32:49;;;;;;;2.88;1.35;;;;;;;18.39;61.20;99360.50;5133217;27;20031;-75
2022/06/14 06:36:07;;;;;;;3.90;1.30;;;;;;;17.89;60.52;99369.41;5108744;27;20043;-76
2022/06/14 06:39:23;;;;;;;3.05;1.30;;;;;;;17.53;61.73;99368.06;5108237;27;20464;-76
2022/06/14 06:42:28;;;;;;;2.05;1.20;;;;;;;17.96;61.14;99371.38;5121563;27;20042;-75
2022/06/14 06:45:28;;;;;;;4.10;1.10;;;;;;;18.30;59.05;99361.31;5103663;27;20047;-76
2022/06/14 06:48:23;;;;;;;3.95;1.33;;;;;;;18.35;57.63;99369.69;5098442;27;20043;-76
2022/06/14 06:51:17;;;;;;;4.65;1.73;;;;;;;17.83;59.44;99371.63;5111310;27;20070;-76
2022/06/14 06:54:43;;;;;;;2.00;1.30;;;;;;;18.49;58.25;99364.94;5105742;28;20037;-76
2022/06/14 06:57:33;;;;;;;3.47;1.23;;;;;;;19.04;56.59;99366.91;5091635;28;20047;-76
2022/06/14 07:00:20;;;;;;;4.82;1.30;;;;;;;19.20;56.11;99368.09;5117941;27;20050;-74
2022/06/14 07:03:22;;;;;;;5.50;1.40;;;;;;;19.17;53.99;99371.91;5111566;28;20039;-76
2022/06/14 07:06:14;;;;;;;3.33;1.90;;;;;;;18.79;56.34;99374.50;5108074;27;20043;-75
2022/06/14 07:09:06;;;;;;;2.28;1.23;;;;;;;18.84;56.27;99377.56;5106615;27;20482;-75
2022/06/14 07:11:57;;;;;;;7.82;1.67;;;;;;;19.08;55.38;99381.53;5137733;27;20163;-75
2022/06/14 07:15:17;;;;;;;3.55;1.35;;;;;;;18.61;55.84;99378.88;5106771;27;20046;-75
2022/06/14 07:18:26;;;;;;;4.35;1.40;;;;;;;19.53;54.12;99383.59;5088756;28;20112;-75
2022/06/14 07:21:22;;;;;;;3.45;1.77;;;;;;;19.30;54.25;99386.66;5110159;27;20818;-76
2022/06/14 07:24:22;;;;;;;2.60;1.40;;;;;;;18.96;55.86;99383.53;5108100;27;20062;-76
2022/06/14 07:27:16;;;;;;;2.67;1.30;;;;;;;19.43;56.03;99394.28;5121325;27;20039;-74
2022/06/14 07:30:36;;;;;;;4.25;1.23;;;;;;;20.47;53.64;99395.81;5112703;27;20051;-75
2022/06/14 07:33:24;;;;;;;3.55;1.20;;;;;;;19.60;54.21;99395.28;5135111;27;20043;-74
2022/06/14 07:36:19;;;;;;;2.63;1.33;;;;;;;19.76;55.22;99393.81;5136594;27;20057;-74
2022/06/14 07:39:17;;;;;;;2.15;0.80;;;;;;;20.92;52.40;99394.00;5120602;27;20035;-74
2022/06/14 07:42:08;;;;;;;3.80;1.13;;;;;;;19.84;54.21;99388.59;5088875;27;20103;-75
2022/06/14 07:45:04;;;;;;;7.18;1.63;;;;;;;19.90;53.32;99393.31;5130751;27;20047;-75
2022/06/14 07:48:01;;;;;;;2.50;1.20;;;;;;;20.46;50.86;99388.81;5091063;27;20154;-73
2022/06/14 07:51:00;;;;;;;2.63;1.38;;;;;;;19.84;52.29;99395.72;5135797;27;20497;-75
2022/06/14 07:53:55;;;;;;;3.75;1.30;;;;;;;20.26;51.63;99391.66;5121984;27;20066;-74
2022/06/14 07:56:58;;;;;;;3.75;1.15;;;;;;;20.17;52.54;99396.06;5136280;27;20051;-76
2022/06/14 08:01:07;;;;;;;3.15;1.30;;;;;;;21.17;50.46;99402.94;5076180;28;20089;-75
2022/06/14 08:03:17;;;;;;;3.80;1.10;;;;;;;21.69;49.00;99405.63;5129834;27;20060;-74
2022/06/14 08:06:12;;;;;;;3.38;1.23;;;;;;;21.42;47.80;99391.56;5124738;27;20376;-75
2022/06/14 08:09:27;;;;;;;5.90;1.20;;;;;;;20.77;49.04;99397.19;5105237;27;20035;-75
2022/06/14 08:12:26;;;;;;;3.85;1.50;;;;;;;20.29;49.41;99396.66;5101546;27;20105;-75
2022/06/14 08:15:22;;;;;;;3.03;1.10;;;;;;;20.19;50.08;99407.38;5157556;27;20050;-77
2022/06/14 08:18:22;;;;;;;5.13;0.85;;;;;;;21.25;48.15;99406.66;5138054;27;20087;-75
2022/06/14 08:21:32;;;;;;;3.15;1.00;;;;;;;21.21;45.44;99395.47;5135294;27;20035;-76
2022/06/14 08:24:20;;;;;;;3.67;1.10;;;;;;;21.12;47.94;99397.25;5117004;27;20134;-75
2022/06/14 08:27:18;;;;;;;1.67;0.88;;;;;;;21.34;47.39;99402.19;5119991;27;20099;-76
2022/06/14 08:30:08;;;;;;;3.97;1.00;;;;;;;21.27;47.42;99409.97;5135359;27;20538;-76
2022/06/14 08:32:58;;;;;;;2.40;0.88;;;;;;;20.94;45.52;99401.81;5119988;27;20392;-76
2022/06/14 08:35:48;;;;;;;2.05;0.88;;;;;;;20.64;45.97;99396.78;5134678;27;20496;-75
2022/06/14 08:38:56;;;;;;;2.30;1.02;;;;;;;20.88;47.14;99401.41;5123968;27;20406;-75
2022/06/14 08:42:00;;;;;;;2.30;1.10;;;;;;;21.66;46.44;99411.28;5099956;28;20036;-76
2022/06/14 08:44:58;;;;;;;3.55;1.08;;;;;;;22.32;44.71;99409.75;5118183;27;20112;-77
2022/06/14 08:48:01;;;;;;;1.45;0.85;;;;;;;21.37;44.64;99391.19;5088456;28;20039;-76
2022/06/14 08:50:46;;;;;;;1.45;0.70;;;;;;;21.92;43.47;99405.03;5125089;27;20083;-77
2022/06/14 08:53:52;;;;;;;2.78;0.98;;;;;;;21.51;45.02;99398.56;5138006;27;20052;-76
2022/06/14 08:56:40;;;;;;;2.70;0.90;;;;;;;22.97;41.68;99393.84;5123079;27;20072;-77
2022/06/14 08:59:50;;;;;;;2.88;0.93;;;;;;;22.06;42.68;99408.91;5119941;27;20050;-76
2022/06/14 09:02:54;;;;;;;2.78;0.90;;;;;;;22.47;43.08;99385.91;5102845;27;20043;-76
2022/06/14 09:06:01;;;;;;;2.47;0.80;;;;;;;22.63;41.46;99385.09;5135054;27;20059;-76
2022/06/14 09:08:47;;;;;;;1.77;0.93;;;;;;;22.23;43.36;99400.94;5134381;27;20103;-76
2022/06/14 09:11:39;;;;;;;3.10;1.00;;;;;;;21.58;43.17;99406.75;5118853;27;20035;-75
2022/06/14 09:14:48;;;;;;;1.85;0.75;;;;;;;21.02;43.51;99388.56;5119293;27;20055;-76
2022/06/14 09:17:58;;;;;;;3.60;0.98;;;;;;;22.00;44.16;99393.56;5119204;27;20034;-76
2022/06/14 09:21:41;;;;;;;2.42;0.70;;;;;;;23.08;40.42;99381.97;5134045;27;20511;-75
2022/06/14 09:24:38;;;;;;;1.50;0.93;;;;;;;23.44;39.64;99386.88;5036055;28;20520;-74
2022/06/14 09:27:53;;;;;;;1.95;0.90;;;;;;;23.47;40.42;99378.50;5036137;28;20496;-76
2022/06/14 09:30:48;;;;;;;4.30;0.75;;;;;;;23.52;38.11;99394.00;5133322;27;20055;-75
2022/06/14 09:33:56;;;;;;;3.50;0.90;;;;;;;22.91;39.04;99386.53;5133664;27;20042;-77
2022/06/14 09:37:06;;;;;;;1.90;1.00;;;;;;;22.98;39.49;99387.53;5111691;27;20050;-76
2022/06/14 09:40:03;;;;;;;4.63;1.00;;;;;;;22.80;38.50;99374.38;5118470;27;20058;-76
2022/06/14 09:43:03;;;;;;;2.90;0.75;;;;;;;23.38;38.81;99380.34;5133800;27;20516;-75
2022/06/14 09:46:14;;;;;;;2.55;0.85;;;;;;;24.56;37.90;99383.91;5107211;27;20043;-76
2022/06/14 09:49:17;;;;;;;2.17;0.80;;;;;;;24.20;36.46;99379.22;5129918;27;20071;-75
2022/06/14 09:52:30;;;;;;;1.92;0.85;;;;;;;24.06;38.39;99381.63;5132600;27;20039;-73
2022/06/14 09:55:48;;;;;;;1.20;0.70;;;;;;;23.20;38.90;99383.25;5099894;27;20092;-74
2022/06/14 09:58:59;;;;;;;3.38;1.00;;;;;;;24.23;38.94;99370.84;5130458;27;20044;-71
2022/06/14 10:01:44;;;;;;;3.50;0.90;;;;;;;23.28;39.33;99366.38;5131137;27;20048;-72
2022/06/14 10:04:53;;;;;;;1.83;0.80;;;;;;;22.07;40.59;99380.38;5122176;27;20039;-73
2022/06/14 10:07:51;;;;;;;3.25;1.00;;;;;;;21.18;44.35;99374.47;5131900;27;20154;-70
2022/06/14 10:11:03;;;;;;;2.92;0.93;;;;;;;21.05;45.78;99375.72;5131233;27;20039;-73
2022/06/14 10:13:49;;;;;;;3.17;0.80;;;;;;;23.04;40.28;99368.13;5126283;27;20069;-71
2022/06/14 10:16:37;;;;;;;2.28;1.15;;;;;;;24.90;37.57;99368.38;5148549;27;20458;-71
2022/06/14 10:19:48;;;;;;;3.00;1.27;;;;;;;25.03;36.79;99359.69;5132360;27;20038;-68
2022/06/14 10:22:58;;;;;;;3.72;0.90;;;;;;;24.24;39.29;99361.78;5131252;27;20046;-62
2022/06/14 10:29:05;;;;;;;3.05;0.90;;;;;;;21.97;43.60;99362.72;5116987;27;20047;-63
2022/06/14 10:32:14;;;;;;;3.92;1.00;;;;;;;23.26;41.80;99357.69;5121338;27;20074;-68
2022/06/14 10:35:04;;;;;;;4.60;0.80;;;;;;;23.23;41.31;99363.38;5129725;27;20411;-67
2022/06/14 10:38:25;;;;;;;2.42;0.93;;;;;;;23.86;40.42;99354.56;5127068;27;20040;-69
2022/06/14 10:41:26;;;;;;;;;;;;;;;22.65;42.11;99348.38;5121109;27;20039;-71
2022/06/14 10:44:20;;;;;;;2.47;0.70;;;;;;;23.31;39.64;99351.81;5131164;27;20358;-71
2022/06/14 10:47:24;;;;;;;6.05;1.13;;;;;;;23.68;41.32;99342.28;5128949;27;20360;-68
2022/06/14 10:50:44;;;;;;;2.95;1.02;;;;;;;23.06;40.42;99352.75;5128062;27;20042;-63
2022/06/14 10:53:41;;;;;;;4.43;0.70;;;;;;;22.33;41.07;99358.03;5130206;27;20058;-64
2022/06/14 10:56:44;;;;;;;4.65;0.98;;;;;;;22.73;41.09;99339.50;5131572;27;20427;-65
2022/06/14 10:59:42;;;;;;;4.70;1.15;;;;;;;22.97;39.37;99341.28;5105097;28;20092;-64
2022/06/14 11:03:16;;;;;;;2.97;0.68;;;;;;;23.57;38.97;99343.53;5127077;28;20035;-64
2022/06/14 11:06:12;;;;;;;3.05;0.80;;;;;;;23.33;38.74;99339.09;5030709;28;20575;-64
2022/06/14 11:09:20;;;;;;;1.67;0.77;;;;;;;22.69;39.79;99340.84;5047770;28;20095;-66
2022/06/14 11:12:08;;;;;;;2.92;0.90;;;;;;;23.17;39.25;99334.69;5130961;28;20050;-64
2022/06/14 11:15:11;;;;;;;2.70;0.80;;;;;;;23.35;38.90;99339.78;5110191;28;20409;-65
2022/06/14 11:18:30;;;;;;;1.85;0.77;;;;;;;22.88;39.06;99336.97;5126006;28;20058;-64
2022/06/14 11:21:39;;;;;;;3.13;0.68;;;;;;;23.22;39.45;99332.31;5119284;28;20378;-66
2022/06/14 11:24:46;;;;;;;5.57;0.75;;;;;;;23.71;37.67;99330.41;5122810;28;20038;-66
2022/06/14 11:27:44;;;;;;;2.88;0.90;;;;;;;25.09;35.91;99329.47;5130216;28;20070;-65
2022/06/14 11:30:50;;;;;;;3.13;1.08;;;;;;;26.02;33.60;99327.16;5118998;28;20478;-65
2022/06/14 11:34:12;;;;;;;3.97;0.80;;;;;;;24.35;36.76;99329.25;5132034;28;20035;-66
2022/06/14 11:37:06;;;;;;;0.70;0.60;;;;;;;23.84;37.10;99322.63;5131520;27;20130;-65
2022/06/14 11:40:01;;;;;;;2.05;0.80;;;;;;;25.11;35.53;99315.88;5116245;28;20045;-66
2022/06/14 11:43:07;;;;;;;5.85;1.23;;;;;;;25.56;35.14;99309.56;5106109;28;20442;-67
2022/06/14 11:46:22;;;;;;;3.72;0.70;;;;;;;25.21;34.32;99310.22;5118349;28;20172;-64
2022/06/14 11:49:19;;;;;;;1.98;0.80;;;;;;;26.30;31.59;99317.47;5125565;27;20042;-63
2022/06/14 11:52:22;;;;;;;3.88;0.90;;;;;;;26.21;30.65;99311.44;5135909;27;20063;-63
2022/06/14 11:55:35;;;;;;;1.70;0.60;;;;;;;26.90;30.64;99306.28;5120055;27;20416;-66
2022/06/14 11:58:39;;;;;;;0.98;0.68;;;;;;;26.98;31.35;99302.59;5131205;27;20108;-65
2022/06/14 12:01:56;;;;;;;3.67;0.95;;;;;;;25.74;30.84;99316.41;5136190;27;20405;-67
2022/06/14 12:04:55;;;;;;;1.10;0.65;;;;;;;26.56;31.17;99300.75;5134383;27;20035;-66
2022/06/14 12:07:45;;;;;;;2.30;0.80;;;;;;;25.83;30.42;99302.66;5111884;27;20047;-66
2022/06/14 12:10:50;;;;;;;1.73;0.68;;;;;;;26.04;31.53;99298.28;5117875;27;20039;-64
2022/06/14 12:13:35;;;;;;;3.40;0.75;;;;;;;26.19;31.31;99300.06;5134522;27;20031;-67
2022/06/14 12:16:38;;;;;;;2.83;1.02;;;;;;;27.63;30.40;99300.53;5146951;27;20046;-67
2022/06/14 12:19:46;;;;;;;3.40;0.80;;;;;;;26.76;30.90;99296.50;5123781;27;20036;-64
2022/06/14 12:22:48;;;;;;;1.58;0.60;;;;;;;26.42;31.84;99299.81;5125669;27;20500;-66
2022/06/14 12:29:41;;;;;;;2.22;0.70;;;;;;;26.06;32.73;99301.63;5127996;27;20035;-65
2022/06/14 12:32:36;;;;;;;2.53;0.95;;;;;;;23.86;35.54;99299.19;5131744;27;20051;-64
2022/06/14 12:35:31;;;;;;;1.95;0.80;;;;;;;23.21;37.59;99303.91;5107285;27;20135;-64
2022/06/14 12:38:23;;;;;;;1.52;0.80;;;;;;;23.38;37.82;99296.66;5101808;27;20526;-64
2022/06/14 12:41:22;;;;;;;2.38;0.95;;;;;;;25.36;35.74;99294.13;5136580;27;20458;-64
2022/06/14 12:44:22;;;;;;;3.10;0.90;;;;;;;25.97;33.70;99275.94;5136930;27;20035;-65
2022/06/14 12:47:15;;;;;;;2.65;1.15;;;;;;;25.86;32.54;99277.28;5136689;27;20055;-62
2022/06/14 12:50:13;;;;;;;2.78;0.65;;;;;;;26.62;32.71;99277.63;5134533;27;20134;-66
2022/06/14 12:53:11;;;;;;;4.45;1.10;;;;;;;26.47;32.62;99266.19;5132292;27;20486;-62
2022/06/14 12:56:02;;;;;;;2.28;0.60;;;;;;;26.57;33.01;99267.47;5134629;27;20039;-66
2022/06/14 12:58:57;;;;;;;3.47;0.70;;;;;;;27.20;32.17;99269.41;5098290;27;20106;-62
2022/06/14 13:01:48;;;;;;;4.97;0.80;;;;;;;27.02;31.98;99268.13;5134435;27;20107;-66
2022/06/14 13:04:40;;;;;;;1.45;0.65;;;;;;;27.41;30.90;99265.72;5130597;27;20091;-65
2022/06/14 13:07:43;;;;;;;0.85;0.52;;;;;;;27.28;30.27;99264.69;5118971;27;20046;-63
2022/06/14 13:10:46;;;;;;;2.83;0.77;;;;;;;27.13;30.98;99258.63;5131484;27;20047;-63
2022/06/14 13:14:08;;;;;;;2.53;0.93;;;;;;;27.14;30.84;99254.94;5122193;27;20027;-64
2022/06/14 13:17:38;;;;;;;3.35;0.90;;;;;;;26.76;31.71;99248.97;5105020;27;20051;-63
2022/06/14 13:20:44;;;;;;;1.42;0.85;;;;;;;27.79;31.09;99243.66;5021425;28;20037;-64
2022/06/14 13:23:50;;;;;;;1.50;0.70;;;;;;;26.20;31.68;99242.66;5031776;28;20492;-63
2022/06/14 13:27:07;;;;;;;5.10;0.77;;;;;;;26.52;31.50;99244.94;5133208;27;20057;-63
2022/06/14 13:30:02;;;;;;;1.95;1.23;;;;;;;26.17;32.43;99237.69;5105401;27;20070;-63
2022/06/14 13:33:14;;;;;;;3.17;0.70;;;;;;;26.08;32.99;99245.06;5118640;27;20084;-65
2022/06/14 13:36:21;;;;;;;2.15;0.90;;;;;;;26.86;31.26;99239.72;5125715;27;20035;-65
2022/06/14 13:39:24;;;;;;;1.02;0.60;;;;;;;26.05;31.27;99246.25;5133904;27;20466;-64
2022/06/14 13:42:20;;;;;;;4.50;0.82;;;;;;;25.77;32.21;99238.22;5120396;27;20489;-64
2022/06/14 13:45:27;;;;;;;1.35;0.60;;;;;;;26.00;31.94;99229.91;5117633;27;20031;-64
2022/06/14 13:48:31;;;;;;;1.48;0.75;;;;;;;26.21;32.21;99230.91;5116807;27;20039;-64
2022/06/14 13:51:32;;;;;;;1.30;0.73;;;;;;;26.45;31.15;99231.47;5133502;27;20139;-63
2022/06/14 13:54:33;;;;;;;;;;;;;;;26.56;31.13;99233.59;5123905;27;20566;-63
2022/06/14 13:57:33;;;;;;;;;;;;;;;26.94;30.14;99229.63;5121096;27;20304;-63
2022/06/14 14:00:42;;;;;;;3.58;0.75;;;;;;;26.75;30.62;99222.31;5118112;27;20415;-63
2022/06/14 14:03:50;;;;;;;2.15;0.82;;;;;;;27.01;31.23;99218.91;5132612;27;20031;-63
2022/06/14 14:06:46;;;;;;;2.03;0.80;;;;;;;25.35;33.33;99233.47;5133256;27;20043;-64
2022/06/14 14:09:38;;;;;;;2.42;1.00;;;;;;;26.42;31.88;99231.88;5122215;27;20039;-64
2022/06/14 14:12:40;;;;;;;1.45;0.80;;;;;;;26.23;31.28;99223.47;5117683;27;20489;-64
2022/06/14 14:15:43;;;;;;;1.85;0.60;;;;;;;26.71;31.99;99218.34;5138354;27;20060;-65
2022/06/14 14:18:49;;;;;;;1.42;0.50;;;;;;;26.18;32.43;99220.53;5125096;27;20114;-63
2022/06/14 14:21:41;;;;;;;1.50;0.82;;;;;;;25.31;32.21;99205.41;5123661;27;20062;-65